createdAt,value
2022-10-08T00:01:48.348Z,97428.22
2022-10-08T00:06:53.133Z,97445.19
2022-10-08T00:11:57.813Z,97446.09
2022-10-08T00:17:01.253Z,97454.50
2022-10-08T00:22:05.982Z,97444.09
2022-10-08T00:27:10.223Z,97443.91
2022-10-08T00:32:13.656Z,97451.44
2022-10-08T00:37:18.338Z,97450.91
2022-10-08T00:42:21.852Z,97442.84
2022-10-08T00:47:37.777Z,97443.22
2022-10-08T00:52:45.749Z,97436.28
2022-10-08T00:57:49.879Z,97438.78
2022-10-08T01:02:54.257Z,97437.09
2022-10-08T01:08:07.456Z,97442.81
2022-10-08T01:13:20.730Z,97448.41
2022-10-08T01:18:34.222Z,97446.72
2022-10-08T01:23:59.233Z,97438.72
2022-10-08T01:29:08.285Z,97434.81
2022-10-08T01:34:18.976Z,97446.72
2022-10-08T01:39:26.796Z,97441.41
2022-10-08T01:44:35.832Z,97445.88
2022-10-08T01:49:44.737Z,97452.88
2022-10-08T01:54:50.509Z,97451.91
2022-10-08T01:59:59.227Z,97447.97
2022-10-08T02:05:02.966Z,97464.38
2022-10-08T02:10:09.037Z,97462.00
2022-10-08T02:15:17.271Z,97458.34
2022-10-08T02:20:26.955Z,97454.31
2022-10-08T02:25:34.499Z,97461.03
2022-10-08T02:30:44.490Z,97458.22
2022-10-08T02:35:51.940Z,97461.31
2022-10-08T02:40:59.569Z,97465.78
2022-10-08T02:46:09.702Z,97467.19
2022-10-08T02:51:18.704Z,97466.06
2022-10-08T02:56:28.449Z,97465.50
2022-10-08T03:01:39.317Z,97474.97
2022-10-08T03:06:42.976Z,97476.91
2022-10-08T03:11:46.921Z,97491.00
2022-10-08T03:16:51.875Z,97488.06
2022-10-08T03:21:56.551Z,97489.69
2022-10-08T03:26:59.933Z,97487.31
2022-10-08T03:32:04.796Z,97475.34
2022-10-08T03:37:10.798Z,97477.31
2022-10-08T03:42:14.308Z,97486.47
2022-10-08T03:47:18.920Z,97480.38
2022-10-08T03:52:22.249Z,97474.19
2022-10-08T03:57:25.631Z,97472.91
2022-10-08T04:02:30.422Z,97482.88
2022-10-08T04:07:33.695Z,97473.41
2022-10-08T04:12:38.167Z,97486.25
2022-10-08T04:17:43.612Z,97488.94
2022-10-08T04:22:49.010Z,97486.53
2022-10-08T04:27:52.706Z,97493.53
2022-10-08T04:32:57.483Z,97490.31
2022-10-08T04:38:00.814Z,97494.28
2022-10-08T04:43:04.217Z,97505.25
2022-10-08T04:48:08.983Z,97519.06
2022-10-08T04:53:12.210Z,97510.69
2022-10-08T04:58:15.501Z,97514.91
2022-10-08T05:03:20.234Z,97520.06
2022-10-08T05:08:23.733Z,97522.09
2022-10-08T05:13:27.401Z,97521.63
2022-10-08T05:18:32.762Z,97518.16
2022-10-08T05:23:36.628Z,97522.09
2022-10-08T05:28:40.076Z,97536.78
2022-10-08T05:33:45.244Z,97540.03
2022-10-08T05:38:48.959Z,97543.78
2022-10-08T05:43:54.575Z,97541.84
2022-10-08T05:49:01.355Z,97566.16
2022-10-08T05:54:05.118Z,97562.19
2022-10-08T05:59:08.606Z,97571.56
2022-10-08T06:04:14.184Z,97570.59
2022-10-08T06:09:19.596Z,97565.78
2022-10-08T06:14:24.354Z,97586.72
2022-10-08T06:19:28.991Z,97581.53
2022-10-08T06:24:33.637Z,97593.94
2022-10-08T06:29:37.839Z,97597.06
2022-10-08T06:34:42.645Z,97603.69
2022-10-08T06:39:48.471Z,97608.75
2022-10-08T06:44:52.249Z,97597.84
2022-10-08T06:49:57.154Z,97601.72
2022-10-08T06:55:00.746Z,97607.31
2022-10-08T07:00:04.758Z,97608.31
2022-10-08T07:05:10.686Z,97616.34
2022-10-08T07:10:18.258Z,97620.13
2022-10-08T07:15:22.898Z,97623.00
2022-10-08T07:20:27.737Z,97622.81
2022-10-08T07:25:31.571Z,97634.63
2022-10-08T07:30:38.597Z,97640.00
2022-10-08T07:35:43.760Z,97637.13
2022-10-08T07:40:48.649Z,97633.34
2022-10-08T07:45:52.301Z,97621.81
2022-10-08T07:50:57.334Z,97623.06
2022-10-08T07:56:01.045Z,97634.94
2022-10-08T08:01:06.571Z,97636.13
2022-10-08T08:06:13.244Z,97637.75
2022-10-08T08:11:18.884Z,97643.84
2022-10-08T08:16:25.416Z,97647.81
2022-10-08T08:21:32.344Z,97651.91
2022-10-08T08:26:39.015Z,97650.69
2022-10-08T08:31:44.359Z,97671.00
2022-10-08T08:36:51.103Z,97673.53
2022-10-08T08:42:07.426Z,97684.41
2022-10-08T08:47:18.891Z,97680.63
2022-10-08T08:52:27.345Z,97672.31
2022-10-08T08:57:41.375Z,97667.34
2022-10-08T09:02:52.832Z,97671.47
2022-10-08T09:08:05.366Z,97669.56
2022-10-08T09:13:18.931Z,97671.44
2022-10-08T09:18:22.445Z,97675.13
2022-10-08T09:23:28.038Z,97667.66
2022-10-08T09:28:44.587Z,97672.16
2022-10-08T09:33:56.093Z,97675.91
2022-10-08T09:39:02.042Z,97685.66
2022-10-08T09:44:16.325Z,97680.28
2022-10-08T09:49:29.046Z,97694.09
2022-10-08T09:54:43.394Z,97692.84
2022-10-08T09:59:51.610Z,97696.63
2022-10-08T10:04:57.084Z,97692.38
2022-10-08T10:10:04.153Z,97693.56
2022-10-08T10:15:16.268Z,97698.19
2022-10-08T10:20:24.721Z,97702.03
2022-10-08T10:25:38.373Z,97703.34
2022-10-08T10:30:50.682Z,97706.53
2022-10-08T10:35:57.134Z,97701.44
2022-10-08T10:41:14.285Z,97705.03
2022-10-08T10:46:33.196Z,97704.69
2022-10-08T10:52:00.681Z,97706.19
2022-10-08T10:57:10.809Z,97724.81
2022-10-08T11:02:26.180Z,97733.00
2022-10-08T11:07:53.907Z,97735.84
2022-10-08T11:13:17.716Z,97730.69
2022-10-08T11:18:30.989Z,97734.28
2022-10-08T11:23:56.575Z,97729.50
2022-10-08T11:29:14.404Z,97735.28
2022-10-08T11:34:24.693Z,97742.91
2022-10-08T11:39:37.143Z,97749.19
2022-10-08T11:44:43.084Z,97759.03
2022-10-08T11:49:55.098Z,97760.03
2022-10-08T11:55:01.189Z,97768.84
2022-10-08T12:00:08.837Z,97771.03
2022-10-08T12:05:32.628Z,97773.69
2022-10-08T12:10:38.180Z,97778.03
2022-10-08T12:15:54.099Z,97785.03
2022-10-08T12:21:31.100Z,97781.88
2022-10-08T12:26:34.551Z,97785.59
2022-10-08T12:31:42.143Z,97797.88
2022-10-08T12:37:04.047Z,97804.88
2022-10-08T12:42:18.960Z,97803.94
2022-10-08T12:47:35.876Z,97796.19
2022-10-08T12:52:39.558Z,97797.63
2022-10-08T12:57:44.556Z,97806.88
2022-10-08T13:03:00.543Z,97805.72
2022-10-08T13:08:19.964Z,97800.75
2022-10-08T13:13:44.961Z,97796.97
2022-10-08T13:18:53.623Z,97802.16
2022-10-08T13:23:57.312Z,97799.38
2022-10-08T13:29:19.507Z,97792.81
2022-10-08T13:34:27.212Z,97791.81
2022-10-08T13:39:34.695Z,97789.84
2022-10-08T13:44:39.812Z,97798.88
2022-10-08T13:49:44.857Z,97815.38
2022-10-08T13:54:49.984Z,97800.72
2022-10-08T13:59:53.651Z,97804.25
2022-10-08T14:04:58.753Z,97812.06
2022-10-08T14:10:03.923Z,97810.28
2022-10-08T14:15:08.984Z,97797.94
2022-10-08T14:20:14.004Z,97805.09
2022-10-08T14:25:19.774Z,97807.22
2022-10-08T14:30:23.347Z,97806.47
2022-10-08T14:35:28.321Z,97816.13
2022-10-08T14:40:31.896Z,97820.16
2022-10-08T14:45:35.521Z,97820.78
2022-10-08T14:50:42.705Z,97825.72
2022-10-08T14:56:10.571Z,97815.22
2022-10-08T15:01:09.882Z,97814.38
2022-10-08T15:06:14.763Z,97817.72
2022-10-08T15:11:18.168Z,97828.00
2022-10-08T15:16:22.097Z,97829.25
2022-10-08T15:21:26.929Z,97818.44
2022-10-08T15:26:30.346Z,97829.66
2022-10-08T15:31:33.805Z,97831.94
2022-10-08T15:36:38.710Z,97833.88
2022-10-08T15:41:43.582Z,97829.38
2022-10-08T15:46:47.600Z,97844.25
2022-10-08T15:51:52.218Z,97846.88
2022-10-08T15:56:55.695Z,97856.16
2022-10-08T16:01:59.459Z,97857.06
2022-10-08T16:07:04.281Z,97866.19
2022-10-08T16:12:07.782Z,97878.34
2022-10-08T16:17:11.262Z,97880.56
2022-10-08T16:22:16.249Z,97882.88
2022-10-08T16:27:19.720Z,97911.06
2022-10-08T16:32:23.441Z,97915.59
2022-10-08T16:37:28.744Z,97920.41
2022-10-08T16:42:32.669Z,97925.63
2022-10-08T16:47:36.289Z,97945.09
2022-10-08T16:52:41.531Z,97952.94
2022-10-08T16:57:51.344Z,97956.28
2022-10-08T17:02:55.202Z,97968.09
2022-10-08T17:07:59.953Z,97970.28
2022-10-08T17:13:03.403Z,97995.75
2022-10-08T17:18:06.853Z,97995.38
2022-10-08T17:23:12.620Z,98014.69
2022-10-08T17:28:16.226Z,98012.16
2022-10-08T17:33:19.794Z,98022.22
2022-10-08T17:38:24.784Z,98028.44
2022-10-08T17:43:29.285Z,98038.97
2022-10-08T17:48:32.885Z,98037.19
2022-10-08T17:53:39.575Z,98037.31
2022-10-08T17:58:43.131Z,98051.09
2022-10-08T18:03:53.014Z,98054.97
2022-10-08T18:09:00.421Z,98070.47
2022-10-08T18:14:04.902Z,98073.19
2022-10-08T18:19:09.158Z,98071.78
2022-10-08T18:24:14.064Z,98084.59
2022-10-08T18:29:17.827Z,98094.22
2022-10-08T18:34:21.374Z,98108.19
2022-10-08T18:39:32.291Z,98111.41
2022-10-08T18:44:35.727Z,98120.63
2022-10-08T18:49:39.453Z,98121.22
2022-10-08T18:54:47.159Z,98131.94
2022-10-08T18:59:50.798Z,98147.19
2022-10-08T19:04:59.227Z,98135.19
2022-10-08T19:10:05.178Z,98141.53
2022-10-08T19:15:09.246Z,98145.41
2022-10-08T19:20:14.464Z,98160.97
2022-10-08T19:25:26.674Z,98156.75
2022-10-08T19:30:36.760Z,98164.09
2022-10-08T19:35:41.865Z,98169.50
2022-10-08T19:40:46.942Z,98182.00
2022-10-08T19:45:50.926Z,98180.13
2022-10-08T19:50:54.345Z,98187.41
2022-10-08T19:56:05.027Z,98195.75
2022-10-08T20:01:12.396Z,98195.72
2022-10-08T20:06:24.050Z,98211.66
2022-10-08T20:11:30.972Z,98212.16
2022-10-08T20:16:36.368Z,98218.66
2022-10-08T20:21:39.836Z,98216.56
2022-10-08T20:26:46.007Z,98231.28
2022-10-08T20:31:58.054Z,98234.91
2022-10-08T20:37:03.452Z,98238.66
2022-10-08T20:42:08.391Z,98258.63
2022-10-08T20:47:11.825Z,98254.75
2022-10-08T20:52:15.635Z,98255.47
2022-10-08T20:57:20.523Z,98257.31
2022-10-08T21:02:24.170Z,98251.19
2022-10-08T21:07:27.722Z,98267.72
2022-10-08T21:12:34.347Z,98275.69
2022-10-08T21:17:38.111Z,98284.06
2022-10-08T21:22:41.500Z,98273.09
2022-10-08T21:27:46.594Z,98286.78
2022-10-08T21:32:50.305Z,98286.38
2022-10-08T21:37:54.029Z,98292.59
2022-10-08T21:42:59.223Z,98297.63
2022-10-08T21:48:02.747Z,98298.66
2022-10-08T21:53:07.334Z,98294.31
2022-10-08T21:58:12.176Z,98307.63
2022-10-08T22:03:17.560Z,98302.16
2022-10-08T22:08:21.497Z,98306.03
2022-10-08T22:13:26.278Z,98309.31
2022-10-08T22:18:31.618Z,98310.53
2022-10-08T22:23:36.710Z,98311.88
2022-10-08T22:28:42.642Z,98307.03
2022-10-08T22:33:47.046Z,98307.88
2022-10-08T22:38:51.284Z,98303.31
2022-10-08T22:43:56.514Z,98306.41
2022-10-08T22:49:00.968Z,98303.44
2022-10-08T22:54:05.109Z,98310.19
2022-10-08T22:59:10.910Z,98313.34
2022-10-08T23:04:14.558Z,98314.84
2022-10-08T23:09:18.139Z,98311.56
2022-10-08T23:14:23.139Z,98315.19
2022-10-08T23:19:26.676Z,98310.59
2022-10-08T23:24:30.478Z,98316.00
2022-10-08T23:29:35.370Z,98317.72
2022-10-08T23:34:38.900Z,98318.44
2022-10-08T23:39:42.514Z,98325.53
2022-10-08T23:44:47.565Z,98322.25
2022-10-08T23:49:51.352Z,98325.31
2022-10-08T23:54:54.880Z,98324.28
2022-10-08T23:59:59.834Z,98334.16
